Anvil, Mississippi
Current Conditions -  °F | °C
As of 8:15 PM on Friday 28 Nov 2014 (Local Time) from KCRX Reporting Station
Clear Clear  
Wind Chill: 41°   Ceiling: Unl
Heat Index: 46°   Visibility: NA
Dew Point: 27°   Wind: 12mph
Humidity: 46%   Direction: 180°S
Pressure: 30.17"   Gusts: NA
Location:  34.9009°N, 88.9211°W
Report Text: KCRX 290215Z AUTO 18010KT CLR 08/M03 A3017 RMK AO2
Loading
Personal Weather Stations






























Interactive Weather Map New forecast layout! Learn more

10-Day Weather Forecast

Advertisements
Track Severe Weather on mobile